KMVE/MVE METAR and TAF weather

Enter ICAO airport designator
Station Type Date Time Source
KMVE METAR 2022/09/26 10:15 UTC NOAA

KMVE 261015Z AUTO 28005KT 10SM CLR 08/04 A3009 RMK AO2


Station Type Date Time Source
KMVE Decoded METAR 2022/09/26 10:15 UTC NOAA

Montevideo, Montevideo-Chippewa County Airport, MN, United States (KMVE) 44-58N 095-43W
Sep 26, 2022 - 06:15 AM EDT / 2022.09.26 1015 UTC
Wind: from the W (280 degrees) at 6 MPH (5 KT):0
Visibility: 10 mile(s):0
Sky conditions: clear
Temperature: 46 F (8 C)
Dew Point: 39 F (4 C)
Relative Humidity: 75%
Pressure (altimeter): 30.09 in. Hg (1018 hPa)
ob: KMVE 261015Z AUTO 28005KT 10SM CLR 08/04 A3009 RMK AO2
cycle: 10

Station Type Date Time Source
KMVE TAF UTC NOAA

Error!

Example: see airport list